TAM3565 SBCR-SBLO
Flight info
| Callsign | TAM3565 |
|---|---|
| Flight time | 1h 9m |
| Altitude | 37000 |
| Route | NEGRO UZ42 GRD UZ63 PAMUS DCT LON |
| Aircraft | A319/M-SDE3FGHIRWY/LB1 |
Departure
| Time | 2026-05-05 17:02 |
|---|---|
| Airport | Corumbá International Airport (SBCR) |
Arrival
| Time | 2026-05-05 18:11 |
|---|---|
| Airport | Governor José Richa Airport (SBLO) |
| Time | Latitude | Longitude | Altitude | Speed | Heading |
|---|---|---|---|---|---|
| 2026-05-05 16:35 | -19.01361 | -57.66372 | 482 ft | 0 kts | 129° |
| 2026-05-05 16:57 | -19.01362 | -57.66369 | 479 ft | 1 kts | 120° |
| 2026-05-05 16:57 | -19.01361 | -57.66354 | 486 ft | 3 kts | 75° |
| 2026-05-05 16:57 | -19.01333 | -57.66332 | 486 ft | 8 kts | 28° |
| 2026-05-05 16:57 | -19.01292 | -57.66273 | 484 ft | 12 kts | 47° |
| 2026-05-05 16:58 | -19.01201 | -57.66284 | 481 ft | 17 kts | 337° |
| 2026-05-05 16:58 | -19.01082 | -57.66338 | 486 ft | 20 kts | 336° |
| 2026-05-05 16:58 | -19.00981 | -57.66433 | 487 ft | 20 kts | 277° |
| 2026-05-05 16:58 | -19.01014 | -57.66579 | 485 ft | 21 kts | 261° |
| 2026-05-05 16:59 | -19.01050 | -57.66737 | 486 ft | 23 kts | 254° |
| 2026-05-05 16:59 | -19.01091 | -57.66902 | 487 ft | 24 kts | 256° |
| 2026-05-05 16:59 | -19.01139 | -57.67074 | 477 ft | 26 kts | 254° |
| 2026-05-05 16:59 | -19.01191 | -57.67261 | 484 ft | 27 kts | 256° |
| 2026-05-05 17:00 | -19.01240 | -57.67455 | 477 ft | 28 kts | 255° |
| 2026-05-05 17:00 | -19.01291 | -57.67646 | 483 ft | 18 kts | 258° |
| 2026-05-05 17:00 | -19.01308 | -57.67732 | 478 ft | 4 kts | 179° |
| 2026-05-05 17:00 | -19.01313 | -57.67699 | 485 ft | 8 kts | 59° |
| 2026-05-05 17:01 | -19.01296 | -57.67661 | 475 ft | 0 kts | 73° |
| 2026-05-05 17:01 | -19.01255 | -57.67508 | 480 ft | 61 kts | 74° |
| 2026-05-05 17:01 | -19.01067 | -57.66819 | 489 ft | 131 kts | 74° |
| 2026-05-05 17:01 | -19.00821 | -57.65804 | 924 ft | 144 kts | 74° |
| 2026-05-05 17:02 | -19.00552 | -57.64783 | 1603 ft | 144 kts | 69° |
| 2026-05-05 17:02 | -19.00264 | -57.63728 | 2206 ft | 159 kts | 71° |
| 2026-05-05 17:02 | -18.99941 | -57.62542 | 2586 ft | 177 kts | 71° |
| 2026-05-05 17:02 | -18.99582 | -57.61222 | 2757 ft | 198 kts | 71° |
| 2026-05-05 17:03 | -18.99181 | -57.59750 | 2934 ft | 219 kts | 70° |
| 2026-05-05 17:03 | -18.98743 | -57.58110 | 3209 ft | 245 kts | 73° |
| 2026-05-05 17:03 | -18.98782 | -57.56233 | 3673 ft | 272 kts | 106° |
| 2026-05-05 17:03 | -18.99868 | -57.54541 | 4442 ft | 285 kts | 130° |
| 2026-05-05 17:04 | -19.01229 | -57.52997 | 5298 ft | 289 kts | 129° |
| 2026-05-05 17:04 | -19.02550 | -57.51377 | 6127 ft | 292 kts | 126° |
| 2026-05-05 17:04 | -19.03814 | -57.49673 | 6923 ft | 297 kts | 124° |
| 2026-05-05 17:04 | -19.05031 | -57.47898 | 7699 ft | 301 kts | 123° |
| 2026-05-05 17:05 | -19.06221 | -57.46064 | 8472 ft | 304 kts | 122° |
| 2026-05-05 17:05 | -19.07401 | -57.44188 | 9230 ft | 308 kts | 122° |
| 2026-05-05 17:05 | -19.08584 | -57.42282 | 9947 ft | 312 kts | 122° |
| 2026-05-05 17:05 | -19.09806 | -57.40310 | 10245 ft | 332 kts | 122° |
| 2026-05-05 17:06 | -19.11116 | -57.38204 | 10377 ft | 354 kts | 122° |
| 2026-05-05 17:06 | -19.12503 | -57.35983 | 10703 ft | 366 kts | 122° |
| 2026-05-05 17:06 | -19.13925 | -57.33719 | 11225 ft | 371 kts | 123° |
| 2026-05-05 17:06 | -19.15338 | -57.31471 | 11867 ft | 372 kts | 122° |
| 2026-05-05 17:07 | -19.16770 | -57.29192 | 12537 ft | 371 kts | 122° |
| 2026-05-05 17:07 | -19.18200 | -57.26917 | 13194 ft | 372 kts | 122° |
| 2026-05-05 17:07 | -19.19634 | -57.24637 | 13830 ft | 372 kts | 122° |
| 2026-05-05 17:07 | -19.21065 | -57.22359 | 14376 ft | 373 kts | 123° |
| 2026-05-05 17:08 | -19.22505 | -57.20060 | 14837 ft | 376 kts | 122° |
| 2026-05-05 17:08 | -19.23957 | -57.17743 | 15288 ft | 380 kts | 123° |
| 2026-05-05 17:08 | -19.25422 | -57.15407 | 15739 ft | 383 kts | 123° |
| 2026-05-05 17:08 | -19.26903 | -57.13046 | 16191 ft | 387 kts | 123° |
| 2026-05-05 17:09 | -19.28396 | -57.10666 | 16642 ft | 390 kts | 123° |
| 2026-05-05 17:09 | -19.29901 | -57.08261 | 17099 ft | 393 kts | 123° |
| 2026-05-05 17:09 | -19.31415 | -57.05833 | 17571 ft | 396 kts | 123° |
| 2026-05-05 17:09 | -19.32882 | -57.03339 | 18017 ft | 401 kts | 118° |
| 2026-05-05 17:10 | -19.34157 | -57.00703 | 18430 ft | 405 kts | 117° |
| 2026-05-05 17:10 | -19.35443 | -56.98036 | 18839 ft | 408 kts | 118° |
| 2026-05-05 17:10 | -19.36747 | -56.95357 | 19250 ft | 411 kts | 118° |
| 2026-05-05 17:10 | -19.38071 | -56.92662 | 19662 ft | 414 kts | 118° |
| 2026-05-05 17:11 | -19.39411 | -56.89949 | 20028 ft | 419 kts | 119° |
| 2026-05-05 17:11 | -19.40770 | -56.87203 | 20449 ft | 422 kts | 119° |
| 2026-05-05 17:11 | -19.42133 | -56.84437 | 20913 ft | 424 kts | 118° |
| 2026-05-05 17:11 | -19.43499 | -56.81656 | 21337 ft | 426 kts | 118° |
| 2026-05-05 17:12 | -19.44871 | -56.78856 | 21738 ft | 429 kts | 118° |
| 2026-05-05 17:12 | -19.46251 | -56.76042 | 22141 ft | 431 kts | 118° |
| 2026-05-05 17:12 | -19.47621 | -56.73250 | 22517 ft | 434 kts | 119° |
| 2026-05-05 17:12 | -19.49019 | -56.70402 | 22889 ft | 437 kts | 119° |
| 2026-05-05 17:13 | -19.50425 | -56.67528 | 23254 ft | 440 kts | 119° |
| 2026-05-05 17:13 | -19.51833 | -56.64641 | 23611 ft | 443 kts | 119° |
| 2026-05-05 17:13 | -19.53254 | -56.61729 | 23916 ft | 445 kts | 119° |
| 2026-05-05 17:13 | -19.54683 | -56.58802 | 24233 ft | 447 kts | 119° |
| 2026-05-05 17:14 | -19.56117 | -56.55867 | 24561 ft | 449 kts | 119° |
| 2026-05-05 17:14 | -19.57558 | -56.52928 | 24889 ft | 450 kts | 119° |
| 2026-05-05 17:14 | -19.59004 | -56.49974 | 25211 ft | 452 kts | 120° |
| 2026-05-05 17:14 | -19.60455 | -56.47005 | 25513 ft | 455 kts | 120° |
| 2026-05-05 17:15 | -19.61911 | -56.44015 | 25820 ft | 457 kts | 120° |
| 2026-05-05 17:15 | -19.63370 | -56.41020 | 26123 ft | 458 kts | 120° |
| 2026-05-05 17:15 | -19.64837 | -56.38007 | 26427 ft | 460 kts | 120° |
| 2026-05-05 17:15 | -19.66311 | -56.34984 | 26724 ft | 462 kts | 120° |
| 2026-05-05 17:16 | -19.67789 | -56.31949 | 27027 ft | 464 kts | 120° |
| 2026-05-05 17:16 | -19.69275 | -56.28895 | 27325 ft | 466 kts | 120° |
| 2026-05-05 17:16 | -19.70763 | -56.25832 | 27623 ft | 468 kts | 120° |
| 2026-05-05 17:16 | -19.72253 | -56.22759 | 27905 ft | 470 kts | 120° |
| 2026-05-05 17:17 | -19.73751 | -56.19668 | 28194 ft | 472 kts | 120° |
| 2026-05-05 17:17 | -19.75256 | -56.16567 | 28475 ft | 473 kts | 120° |
| 2026-05-05 17:17 | -19.76751 | -56.13492 | 28738 ft | 475 kts | 120° |
| 2026-05-05 17:17 | -19.78271 | -56.10368 | 29009 ft | 477 kts | 120° |
| 2026-05-05 17:18 | -19.79797 | -56.07231 | 29255 ft | 480 kts | 120° |
| 2026-05-05 17:18 | -19.81328 | -56.04074 | 29509 ft | 482 kts | 120° |
| 2026-05-05 17:18 | -19.82858 | -56.00904 | 29766 ft | 484 kts | 120° |
| 2026-05-05 17:18 | -19.84395 | -55.97713 | 30017 ft | 486 kts | 120° |
| 2026-05-05 17:19 | -19.85936 | -55.94517 | 30234 ft | 487 kts | 120° |
| 2026-05-05 17:19 | -19.87481 | -55.91314 | 30504 ft | 487 kts | 120° |
| 2026-05-05 17:19 | -19.89029 | -55.88106 | 30838 ft | 486 kts | 120° |
| 2026-05-05 17:19 | -19.90568 | -55.84918 | 31173 ft | 484 kts | 120° |
| 2026-05-05 17:20 | -19.92101 | -55.81741 | 31510 ft | 483 kts | 121° |
| 2026-05-05 17:20 | -19.93632 | -55.78570 | 31860 ft | 482 kts | 121° |
| 2026-05-05 17:20 | -19.95157 | -55.75406 | 32230 ft | 480 kts | 121° |
| 2026-05-05 17:20 | -19.96677 | -55.72248 | 32596 ft | 479 kts | 121° |
| 2026-05-05 17:21 | -19.98190 | -55.69102 | 32963 ft | 478 kts | 121° |
| 2026-05-05 17:21 | -19.99699 | -55.65958 | 33309 ft | 477 kts | 121° |
| 2026-05-05 17:21 | -20.01203 | -55.62825 | 33675 ft | 476 kts | 121° |
| 2026-05-05 17:22 | -20.04206 | -55.56574 | 34385 ft | 474 kts | 122° |
| 2026-05-05 17:22 | -20.05712 | -55.53452 | 34695 ft | 473 kts | 122° |
| 2026-05-05 17:22 | -20.07216 | -55.50339 | 34992 ft | 473 kts | 122° |
| 2026-05-05 17:22 | -20.08718 | -55.47228 | 35282 ft | 473 kts | 122° |
| 2026-05-05 17:23 | -20.10219 | -55.44114 | 35568 ft | 473 kts | 122° |
| 2026-05-05 17:23 | -20.11714 | -55.41001 | 35847 ft | 473 kts | 122° |
| 2026-05-05 17:23 | -20.13207 | -55.37888 | 36119 ft | 472 kts | 122° |
| 2026-05-05 17:23 | -20.14698 | -55.34771 | 36391 ft | 472 kts | 122° |
| 2026-05-05 17:24 | -20.16185 | -55.31657 | 36634 ft | 472 kts | 123° |
| 2026-05-05 17:24 | -20.17682 | -55.28547 | 36840 ft | 472 kts | 124° |
| 2026-05-05 17:24 | -20.19232 | -55.25462 | 37005 ft | 472 kts | 125° |
| 2026-05-05 17:25 | -20.22406 | -55.19389 | 37035 ft | 469 kts | 126° |
| 2026-05-05 17:25 | -20.25570 | -55.13374 | 37038 ft | 468 kts | 125° |
| 2026-05-05 17:26 | -20.28709 | -55.07297 | 37039 ft | 469 kts | 125° |
| 2026-05-05 17:26 | -20.31830 | -55.01195 | 37040 ft | 469 kts | 125° |
| 2026-05-05 17:27 | -20.34942 | -54.95092 | 37049 ft | 469 kts | 125° |
| 2026-05-05 17:27 | -20.38064 | -54.88995 | 37051 ft | 468 kts | 125° |
| 2026-05-05 17:28 | -20.41196 | -54.82895 | 37094 ft | 469 kts | 125° |
| 2026-05-05 17:28 | -20.44319 | -54.76792 | 37106 ft | 469 kts | 125° |
| 2026-05-05 17:29 | -20.47441 | -54.70693 | 37118 ft | 468 kts | 127° |
| 2026-05-05 17:29 | -20.51230 | -54.65194 | 37111 ft | 457 kts | 137° |
| 2026-05-05 17:30 | -20.55301 | -54.59983 | 37109 ft | 457 kts | 137° |
| 2026-05-05 17:30 | -20.59341 | -54.54779 | 37099 ft | 458 kts | 137° |
| 2026-05-05 17:31 | -20.63401 | -54.49539 | 37084 ft | 458 kts | 137° |
| 2026-05-05 17:31 | -20.67466 | -54.44307 | 37071 ft | 458 kts | 137° |
| 2026-05-05 17:32 | -20.71536 | -54.39065 | 37057 ft | 458 kts | 137° |
| 2026-05-05 17:32 | -20.75600 | -54.33825 | 37061 ft | 458 kts | 137° |
| 2026-05-05 17:33 | -20.79656 | -54.28584 | 37064 ft | 458 kts | 137° |
| 2026-05-05 17:33 | -20.83712 | -54.23336 | 37065 ft | 458 kts | 137° |
| 2026-05-05 17:34 | -20.87763 | -54.18085 | 37062 ft | 458 kts | 137° |
| 2026-05-05 17:34 | -20.91812 | -54.12842 | 37059 ft | 457 kts | 138° |
| 2026-05-05 17:35 | -20.95969 | -54.07723 | 37059 ft | 455 kts | 140° |
| 2026-05-05 17:35 | -21.00200 | -54.02692 | 37057 ft | 455 kts | 140° |
| 2026-05-05 17:36 | -21.04417 | -53.97647 | 37066 ft | 455 kts | 140° |
| 2026-05-05 17:36 | -21.08603 | -53.92560 | 37065 ft | 455 kts | 139° |
| 2026-05-05 17:37 | -21.12773 | -53.87456 | 37064 ft | 455 kts | 139° |
| 2026-05-05 17:37 | -21.16944 | -53.82365 | 37058 ft | 455 kts | 139° |
| 2026-05-05 17:38 | -21.21129 | -53.77286 | 37064 ft | 454 kts | 140° |
| 2026-05-05 17:38 | -21.25277 | -53.72236 | 37069 ft | 454 kts | 140° |
| 2026-05-05 17:39 | -21.29445 | -53.67142 | 37068 ft | 454 kts | 139° |
| 2026-05-05 17:39 | -21.33608 | -53.62048 | 37065 ft | 454 kts | 139° |
| 2026-05-05 17:40 | -21.37772 | -53.56950 | 37062 ft | 454 kts | 139° |
| 2026-05-05 17:40 | -21.41241 | -53.52700 | 37071 ft | 454 kts | 140° |
| 2026-05-05 17:41 | -21.45400 | -53.47606 | 37064 ft | 454 kts | 140° |
| 2026-05-05 17:41 | -21.50232 | -53.41672 | 37061 ft | 454 kts | 139° |
| 2026-05-05 17:42 | -21.53700 | -53.37381 | 37061 ft | 454 kts | 139° |
| 2026-05-05 17:42 | -21.57837 | -53.32263 | 37057 ft | 454 kts | 139° |
| 2026-05-05 17:43 | -21.61980 | -53.27142 | 37058 ft | 454 kts | 140° |
| 2026-05-05 17:43 | -21.66124 | -53.22030 | 37072 ft | 454 kts | 140° |
| 2026-05-05 17:44 | -21.70263 | -53.16901 | 37069 ft | 454 kts | 139° |
| 2026-05-05 17:44 | -21.74390 | -53.11767 | 37066 ft | 453 kts | 139° |
| 2026-05-05 17:45 | -21.78523 | -53.06642 | 37078 ft | 453 kts | 140° |
| 2026-05-05 17:45 | -21.82629 | -53.01552 | 37071 ft | 453 kts | 140° |
| 2026-05-05 17:46 | -21.86779 | -52.96380 | 37073 ft | 453 kts | 140° |
| 2026-05-05 17:46 | -21.90873 | -52.91278 | 37060 ft | 453 kts | 140° |
| 2026-05-05 17:46 | -21.92937 | -52.88707 | 36818 ft | 454 kts | 139° |
| 2026-05-05 17:47 | -21.94998 | -52.86139 | 36562 ft | 453 kts | 139° |
| 2026-05-05 17:47 | -21.97064 | -52.83570 | 36314 ft | 454 kts | 139° |
| 2026-05-05 17:47 | -21.99132 | -52.80997 | 36084 ft | 454 kts | 139° |
| 2026-05-05 17:47 | -22.01194 | -52.78424 | 35844 ft | 455 kts | 139° |
| 2026-05-05 17:48 | -22.03260 | -52.75841 | 35621 ft | 455 kts | 139° |
| 2026-05-05 17:48 | -22.05324 | -52.73261 | 35378 ft | 455 kts | 139° |
| 2026-05-05 17:48 | -22.07390 | -52.70675 | 35145 ft | 455 kts | 138° |
| 2026-05-05 17:48 | -22.09454 | -52.68094 | 34909 ft | 455 kts | 138° |
| 2026-05-05 17:49 | -22.11529 | -52.65501 | 34672 ft | 455 kts | 138° |
| 2026-05-05 17:49 | -22.13594 | -52.62913 | 34442 ft | 456 kts | 138° |
| 2026-05-05 17:49 | -22.15663 | -52.60324 | 34217 ft | 456 kts | 138° |
| 2026-05-05 17:49 | -22.17732 | -52.57732 | 33978 ft | 456 kts | 137° |
| 2026-05-05 17:50 | -22.19806 | -52.55138 | 33727 ft | 457 kts | 137° |
| 2026-05-05 17:50 | -22.21882 | -52.52536 | 33482 ft | 459 kts | 137° |
| 2026-05-05 17:50 | -22.23968 | -52.49915 | 33216 ft | 459 kts | 137° |
| 2026-05-05 17:50 | -22.26051 | -52.47299 | 32956 ft | 460 kts | 137° |
| 2026-05-05 17:51 | -22.28142 | -52.44674 | 32703 ft | 462 kts | 136° |
| 2026-05-05 17:51 | -22.30235 | -52.42041 | 32131 ft | 463 kts | 136° |
| 2026-05-05 17:51 | -22.32354 | -52.39376 | 31134 ft | 472 kts | 135° |
| 2026-05-05 17:51 | -22.34505 | -52.36676 | 30165 ft | 477 kts | 135° |
| 2026-05-05 17:52 | -22.36692 | -52.33931 | 29100 ft | 482 kts | 134° |
| 2026-05-05 17:52 | -22.38846 | -52.31210 | 28682 ft | 472 kts | 134° |
| 2026-05-05 17:52 | -22.40970 | -52.28524 | 28021 ft | 468 kts | 134° |
| 2026-05-05 17:52 | -22.43077 | -52.25867 | 27396 ft | 463 kts | 134° |
| 2026-05-05 17:53 | -22.45134 | -52.23271 | 26780 ft | 459 kts | 134° |
| 2026-05-05 17:53 | -22.47199 | -52.20666 | 26167 ft | 454 kts | 134° |
| 2026-05-05 17:53 | -22.49248 | -52.18082 | 25545 ft | 451 kts | 134° |
| 2026-05-05 17:53 | -22.51277 | -52.15521 | 24941 ft | 447 kts | 133° |
| 2026-05-05 17:54 | -22.53293 | -52.12976 | 24331 ft | 444 kts | 133° |
| 2026-05-05 17:54 | -22.55297 | -52.10440 | 23732 ft | 441 kts | 133° |
| 2026-05-05 17:54 | -22.57276 | -52.07932 | 23078 ft | 437 kts | 133° |
| 2026-05-05 17:54 | -22.59240 | -52.05444 | 22503 ft | 431 kts | 133° |
| 2026-05-05 17:55 | -22.61172 | -52.02996 | 21959 ft | 425 kts | 133° |
| 2026-05-05 17:55 | -22.63087 | -52.00572 | 21421 ft | 421 kts | 133° |
| 2026-05-05 17:55 | -22.64981 | -51.98177 | 20899 ft | 416 kts | 132° |
| 2026-05-05 17:55 | -22.66851 | -51.95809 | 20395 ft | 412 kts | 132° |
| 2026-05-05 17:56 | -22.68706 | -51.93459 | 19903 ft | 409 kts | 132° |
| 2026-05-05 17:56 | -22.70544 | -51.91128 | 19406 ft | 405 kts | 132° |
| 2026-05-05 17:56 | -22.72356 | -51.88826 | 18917 ft | 401 kts | 132° |
| 2026-05-05 17:56 | -22.74166 | -51.86526 | 18405 ft | 398 kts | 132° |
| 2026-05-05 17:57 | -22.75953 | -51.84252 | 17856 ft | 395 kts | 131° |
| 2026-05-05 17:57 | -22.77722 | -51.82001 | 17332 ft | 390 kts | 132° |
| 2026-05-05 17:57 | -22.79464 | -51.79783 | 16895 ft | 383 kts | 131° |
| 2026-05-05 17:57 | -22.81181 | -51.77601 | 16405 ft | 378 kts | 131° |
| 2026-05-05 17:58 | -22.82875 | -51.75449 | 15923 ft | 373 kts | 130° |
| 2026-05-05 17:58 | -22.84618 | -51.73429 | 15453 ft | 369 kts | 137° |
| 2026-05-05 17:58 | -22.86597 | -51.71689 | 14986 ft | 364 kts | 141° |
| 2026-05-05 17:58 | -22.88580 | -51.70000 | 14525 ft | 360 kts | 140° |
| 2026-05-05 17:59 | -22.90516 | -51.68349 | 14062 ft | 348 kts | 140° |
| 2026-05-05 17:59 | -22.92387 | -51.66754 | 13577 ft | 336 kts | 140° |
| 2026-05-05 17:59 | -22.94199 | -51.65208 | 13070 ft | 327 kts | 140° |
| 2026-05-05 17:59 | -22.95957 | -51.63706 | 12561 ft | 318 kts | 140° |
| 2026-05-05 18:00 | -22.97677 | -51.62235 | 12076 ft | 311 kts | 140° |
| 2026-05-05 18:00 | -22.99344 | -51.60808 | 11773 ft | 299 kts | 140° |
| 2026-05-05 18:00 | -23.00952 | -51.59432 | 11437 ft | 290 kts | 140° |
| 2026-05-05 18:00 | -23.02511 | -51.58098 | 11102 ft | 280 kts | 140° |
| 2026-05-05 18:01 | -23.03998 | -51.56826 | 10981 ft | 264 kts | 140° |
| 2026-05-05 18:01 | -23.05411 | -51.55616 | 10760 ft | 254 kts | 139° |
| 2026-05-05 18:01 | -23.06788 | -51.54433 | 10406 ft | 251 kts | 139° |
| 2026-05-05 18:01 | -23.08150 | -51.53263 | 9999 ft | 249 kts | 140° |
| 2026-05-05 18:02 | -23.09502 | -51.52102 | 9638 ft | 245 kts | 140° |
| 2026-05-05 18:02 | -23.10810 | -51.50984 | 9511 ft | 234 kts | 140° |
| 2026-05-05 18:02 | -23.12062 | -51.49912 | 9379 ft | 225 kts | 140° |
| 2026-05-05 18:02 | -23.13260 | -51.48884 | 9247 ft | 213 kts | 140° |
| 2026-05-05 18:03 | -23.14396 | -51.47908 | 9120 ft | 203 kts | 140° |
| 2026-05-05 18:03 | -23.15479 | -51.46980 | 8983 ft | 193 kts | 140° |
| 2026-05-05 18:03 | -23.16521 | -51.46087 | 8738 ft | 188 kts | 139° |
| 2026-05-05 18:03 | -23.17559 | -51.45195 | 8356 ft | 194 kts | 139° |
| 2026-05-05 18:04 | -23.18628 | -51.44276 | 7949 ft | 199 kts | 139° |
| 2026-05-05 18:04 | -23.19730 | -51.43328 | 7553 ft | 206 kts | 140° |
| 2026-05-05 18:04 | -23.20881 | -51.42336 | 7163 ft | 215 kts | 140° |
| 2026-05-05 18:04 | -23.22082 | -51.41301 | 6667 ft | 228 kts | 140° |
| 2026-05-05 18:05 | -23.23313 | -51.40232 | 6220 ft | 225 kts | 138° |
| 2026-05-05 18:05 | -23.24360 | -51.38978 | 5673 ft | 224 kts | 124° |
| 2026-05-05 18:05 | -23.25114 | -51.37513 | 5168 ft | 222 kts | 110° |
| 2026-05-05 18:05 | -23.25648 | -51.35934 | 4751 ft | 219 kts | 108° |
| 2026-05-05 18:06 | -23.26166 | -51.34392 | 4350 ft | 215 kts | 108° |
| 2026-05-05 18:06 | -23.26502 | -51.33401 | 4206 ft | 208 kts | 108° |
| 2026-05-05 18:06 | -23.27147 | -51.31508 | 4082 ft | 187 kts | 108° |
| 2026-05-05 18:06 | -23.27575 | -51.30256 | 4092 ft | 170 kts | 107° |
| 2026-05-05 18:07 | -23.27972 | -51.29085 | 4049 ft | 165 kts | 107° |
| 2026-05-05 18:07 | -23.28366 | -51.27916 | 3913 ft | 161 kts | 107° |
| 2026-05-05 18:07 | -23.28752 | -51.26767 | 3827 ft | 161 kts | 108° |
| 2026-05-05 18:07 | -23.29129 | -51.25643 | 3739 ft | 158 kts | 108° |
| 2026-05-05 18:08 | -23.29503 | -51.24524 | 3665 ft | 158 kts | 108° |
| 2026-05-05 18:08 | -23.29882 | -51.23392 | 3596 ft | 160 kts | 107° |
| 2026-05-05 18:08 | -23.30260 | -51.22266 | 3526 ft | 158 kts | 108° |
| 2026-05-05 18:08 | -23.30637 | -51.21144 | 3351 ft | 158 kts | 107° |
| 2026-05-05 18:09 | -23.31010 | -51.20037 | 3142 ft | 155 kts | 109° |
| 2026-05-05 18:09 | -23.31377 | -51.18944 | 2930 ft | 149 kts | 107° |
| 2026-05-05 18:09 | -23.31727 | -51.17906 | 2735 ft | 143 kts | 108° |
| 2026-05-05 18:09 | -23.32072 | -51.16893 | 2532 ft | 143 kts | 106° |
| 2026-05-05 18:10 | -23.32400 | -51.15879 | 2354 ft | 141 kts | 106° |
| 2026-05-05 18:10 | -23.32736 | -51.14883 | 2151 ft | 142 kts | 107° |
| 2026-05-05 18:10 | -23.33065 | -51.13884 | 1919 ft | 136 kts | 108° |
| 2026-05-05 18:10 | -23.33364 | -51.12989 | 1872 ft | 97 kts | 110° |
| 2026-05-05 18:11 | -23.33496 | -51.12611 | 1877 ft | 19 kts | 121° |
| 2026-05-05 18:11 | -23.33465 | -51.12504 | 1876 ft | 19 kts | 343° |
| 2026-05-05 18:11 | -23.33391 | -51.12611 | 1872 ft | 19 kts | 292° |
| 2026-05-05 18:11 | -23.33344 | -51.12746 | 1875 ft | 20 kts | 289° |
| 2026-05-05 18:12 | -23.33297 | -51.12896 | 1876 ft | 22 kts | 290° |
| 2026-05-05 18:12 | -23.33243 | -51.13055 | 1876 ft | 23 kts | 289° |
| 2026-05-05 18:12 | -23.33188 | -51.13218 | 1875 ft | 24 kts | 290° |
| 2026-05-05 18:12 | -23.33131 | -51.13394 | 1877 ft | 25 kts | 289° |
| 2026-05-05 18:13 | -23.33070 | -51.13576 | 1875 ft | 26 kts | 290° |
| 2026-05-05 18:13 | -23.33031 | -51.13687 | 1874 ft | 9 kts | 290° |
| 2026-05-05 18:13 | -23.33009 | -51.13729 | 1875 ft | 6 kts | 295° |
| 2026-05-05 18:13 | -23.32978 | -51.13738 | 1876 ft | 5 kts | 17° |
| 2026-05-05 18:14 | -23.32955 | -51.13730 | 1876 ft | 1 kts | 17° |
| 2026-05-05 18:14 | -23.32943 | -51.13725 | 1876 ft | 0 kts | 22° |
| 2026-05-05 18:14 | -23.32942 | -51.13725 | 1876 ft | 0 kts | 22° |
| 2026-05-05 18:15 | -23.32944 | -51.13725 | 1876 ft | 0 kts | 22° |
| 2026-05-05 18:15 | -23.32945 | -51.13726 | 1876 ft | 0 kts | 22° |